sensor_id;sensor_type;location;lat;lon;timestamp;temperature;humidity
64961;SHT31;51487;52.266;10.542;2024-02-26T00:00:32;3.52;89.46
64961;SHT31;51487;52.266;10.542;2024-02-26T00:03:00;3.50;89.54
64961;SHT31;51487;52.266;10.542;2024-02-26T00:05:26;3.50;89.80
64961;SHT31;51487;52.266;10.542;2024-02-26T00:07:51;3.46;89.38
64961;SHT31;51487;52.266;10.542;2024-02-26T00:10:17;3.34;89.96
64961;SHT31;51487;52.266;10.542;2024-02-26T00:12:43;3.34;90.04
64961;SHT31;51487;52.266;10.542;2024-02-26T00:15:10;3.34;89.87
64961;SHT31;51487;52.266;10.542;2024-02-26T00:17:36;3.28;90.02
64961;SHT31;51487;52.266;10.542;2024-02-26T00:20:03;3.42;89.72
64961;SHT31;51487;52.266;10.542;2024-02-26T00:22:31;3.48;89.64
64961;SHT31;51487;52.266;10.542;2024-02-26T00:24:56;3.51;89.58
64961;SHT31;51487;52.266;10.542;2024-02-26T00:27:22;3.59;89.23
64961;SHT31;51487;52.266;10.542;2024-02-26T00:29:47;3.59;89.45
64961;SHT31;51487;52.266;10.542;2024-02-26T00:32:13;3.58;89.60
64961;SHT31;51487;52.266;10.542;2024-02-26T00:34:39;3.48;89.68
64961;SHT31;51487;52.266;10.542;2024-02-26T00:37:04;3.54;89.74
64961;SHT31;51487;52.266;10.542;2024-02-26T00:39:30;3.48;89.93
64961;SHT31;51487;52.266;10.542;2024-02-26T00:41:55;3.52;89.58
64961;SHT31;51487;52.266;10.542;2024-02-26T00:44:21;3.41;89.91
64961;SHT31;51487;52.266;10.542;2024-02-26T00:46:46;3.42;90.01
64961;SHT31;51487;52.266;10.542;2024-02-26T00:49:12;3.38;89.91
64961;SHT31;51487;52.266;10.542;2024-02-26T00:51:37;3.36;90.01
64961;SHT31;51487;52.266;10.542;2024-02-26T00:54:03;3.41;89.91
64961;SHT31;51487;52.266;10.542;2024-02-26T00:56:28;3.32;90.13
64961;SHT31;51487;52.266;10.542;2024-02-26T00:58:54;3.31;90.05
64961;SHT31;51487;52.266;10.542;2024-02-26T01:01:20;3.34;89.97
64961;SHT31;51487;52.266;10.542;2024-02-26T01:03:45;3.38;90.03
64961;SHT31;51487;52.266;10.542;2024-02-26T01:06:11;3.36;89.87
64961;SHT31;51487;52.266;10.542;2024-02-26T01:08:36;3.42;89.63
64961;SHT31;51487;52.266;10.542;2024-02-26T01:11:03;3.31;90.19
64961;SHT31;51487;52.266;10.542;2024-02-26T01:13:28;3.18;90.25
64961;SHT31;51487;52.266;10.542;2024-02-26T01:15:54;3.18;90.39
64961;SHT31;51487;52.266;10.542;2024-02-26T01:18:21;3.23;90.24
64961;SHT31;51487;52.266;10.542;2024-02-26T01:20:47;3.27;89.94
64961;SHT31;51487;52.266;10.542;2024-02-26T01:23:13;3.18;90.00
64961;SHT31;51487;52.266;10.542;2024-02-26T01:25:38;3.11;90.40
64961;SHT31;51487;52.266;10.542;2024-02-26T01:28:05;3.05;90.37
64961;SHT31;51487;52.266;10.542;2024-02-26T01:30:31;3.17;90.20
64961;SHT31;51487;52.266;10.542;2024-02-26T01:32:57;3.15;90.07
64961;SHT31;51487;52.266;10.542;2024-02-26T01:35:23;3.15;89.87
64961;SHT31;51487;52.266;10.542;2024-02-26T01:37:48;3.00;90.15
64961;SHT31;51487;52.266;10.542;2024-02-26T01:40:14;2.93;90.52
64961;SHT31;51487;52.266;10.542;2024-02-26T01:42:45;2.87;91.00
64961;SHT31;51487;52.266;10.542;2024-02-26T01:45:16;3.01;90.43
64961;SHT31;51487;52.266;10.542;2024-02-26T01:47:50;2.96;90.48
64961;SHT31;51487;52.266;10.542;2024-02-26T01:50:17;2.84;90.97
64961;SHT31;51487;52.266;10.542;2024-02-26T01:52:47;2.90;90.48
64961;SHT31;51487;52.266;10.542;2024-02-26T01:55:14;2.94;90.42
64961;SHT31;51487;52.266;10.542;2024-02-26T01:57:42;2.82;90.65
64961;SHT31;51487;52.266;10.542;2024-02-26T02:00:09;2.76;91.05
64961;SHT31;51487;52.266;10.542;2024-02-26T02:02:36;2.79;91.11
64961;SHT31;51487;52.266;10.542;2024-02-26T02:05:03;2.83;90.74
64961;SHT31;51487;52.266;10.542;2024-02-26T02:07:29;2.73;90.66
64961;SHT31;51487;52.266;10.542;2024-02-26T02:09:55;2.60;91.15
64961;SHT31;51487;52.266;10.542;2024-02-26T02:12:21;2.56;91.56
64961;SHT31;51487;52.266;10.542;2024-02-26T02:14:47;2.49;91.95
64961;SHT31;51487;52.266;10.542;2024-02-26T02:17:13;2.53;91.92
64961;SHT31;51487;52.266;10.542;2024-02-26T02:19:38;2.53;92.03
64961;SHT31;51487;52.266;10.542;2024-02-26T02:22:04;2.55;91.94
64961;SHT31;51487;52.266;10.542;2024-02-26T02:24:30;2.49;91.70
64961;SHT31;51487;52.266;10.542;2024-02-26T02:26:55;2.52;91.83
64961;SHT31;51487;52.266;10.542;2024-02-26T02:29:21;2.55;91.74
64961;SHT31;51487;52.266;10.542;2024-02-26T02:31:47;2.63;91.23
64961;SHT31;51487;52.266;10.542;2024-02-26T02:34:14;2.71;91.03
64961;SHT31;51487;52.266;10.542;2024-02-26T02:36:52;2.73;90.69
64961;SHT31;51487;52.266;10.542;2024-02-26T02:39:18;2.60;91.10
64961;SHT31;51487;52.266;10.542;2024-02-26T02:41:43;2.60;91.16
64961;SHT31;51487;52.266;10.542;2024-02-26T02:44:09;2.56;91.35
64961;SHT31;51487;52.266;10.542;2024-02-26T02:46:35;2.56;91.54
64961;SHT31;51487;52.266;10.542;2024-02-26T02:49:01;2.72;91.03
64961;SHT31;51487;52.266;10.542;2024-02-26T02:51:26;2.76;90.86
64961;SHT31;51487;52.266;10.542;2024-02-26T02:53:52;2.63;91.08
64961;SHT31;51487;52.266;10.542;2024-02-26T02:56:18;2.64;91.21
64961;SHT31;51487;52.266;10.542;2024-02-26T02:58:43;2.67;90.85
64961;SHT31;51487;52.266;10.542;2024-02-26T03:01:09;2.66;90.84
64961;SHT31;51487;52.266;10.542;2024-02-26T03:03:34;2.69;90.77
64961;SHT31;51487;52.266;10.542;2024-02-26T03:06:02;2.59;91.01
64961;SHT31;51487;52.266;10.542;2024-02-26T03:08:28;2.49;91.21
64961;SHT31;51487;52.266;10.542;2024-02-26T03:10:54;2.35;91.71
64961;SHT31;51487;52.266;10.542;2024-02-26T03:13:20;2.39;91.83
64961;SHT31;51487;52.266;10.542;2024-02-26T03:15:45;2.42;91.91
64961;SHT31;51487;52.266;10.542;2024-02-26T03:18:11;2.38;92.22
64961;SHT31;51487;52.266;10.542;2024-02-26T03:20:36;2.41;92.27
64961;SHT31;51487;52.266;10.542;2024-02-26T03:23:03;2.45;92.04
64961;SHT31;51487;52.266;10.542;2024-02-26T03:25:28;2.45;91.85
64961;SHT31;51487;52.266;10.542;2024-02-26T03:27:54;2.56;91.58
64961;SHT31;51487;52.266;10.542;2024-02-26T03:30:19;2.39;91.69
64961;SHT31;51487;52.266;10.542;2024-02-26T03:32:45;2.52;91.45
64961;SHT31;51487;52.266;10.542;2024-02-26T03:35:12;2.55;91.42
64961;SHT31;51487;52.266;10.542;2024-02-26T03:37:37;2.57;91.11
64961;SHT31;51487;52.266;10.542;2024-02-26T03:40:04;2.59;91.57
64961;SHT31;51487;52.266;10.542;2024-02-26T03:42:30;2.67;90.84
64961;SHT31;51487;52.266;10.542;2024-02-26T03:44:55;2.63;91.05
64961;SHT31;51487;52.266;10.542;2024-02-26T03:47:21;2.66;90.86
64961;SHT31;51487;52.266;10.542;2024-02-26T03:49:47;2.66;90.76
64961;SHT31;51487;52.266;10.542;2024-02-26T03:52:13;2.60;91.13
64961;SHT31;51487;52.266;10.542;2024-02-26T03:54:40;2.53;91.37
64961;SHT31;51487;52.266;10.542;2024-02-26T03:57:05;2.48;91.38
64961;SHT31;51487;52.266;10.542;2024-02-26T03:59:31;2.49;91.44
64961;SHT31;51487;52.266;10.542;2024-02-26T04:01:56;2.49;91.55
64961;SHT31;51487;52.266;10.542;2024-02-26T04:04:22;2.60;91.29
64961;SHT31;51487;52.266;10.542;2024-02-26T04:06:47;2.53;91.07
64961;SHT31;51487;52.266;10.542;2024-02-26T04:09:14;2.39;91.56
64961;SHT31;51487;52.266;10.542;2024-02-26T04:11:40;2.26;92.20
64961;SHT31;51487;52.266;10.542;2024-02-26T04:14:05;2.26;92.15
64961;SHT31;51487;52.266;10.542;2024-02-26T04:16:34;2.34;92.07
64961;SHT31;51487;52.266;10.542;2024-02-26T04:19:01;2.32;92.24
64961;SHT31;51487;52.266;10.542;2024-02-26T04:21:27;2.43;92.13
64961;SHT31;51487;52.266;10.542;2024-02-26T04:23:54;2.43;91.99
64961;SHT31;51487;52.266;10.542;2024-02-26T04:26:26;2.50;91.96
64961;SHT31;51487;52.266;10.542;2024-02-26T04:28:52;2.64;91.95
64961;SHT31;51487;52.266;10.542;2024-02-26T04:31:18;2.62;91.86
64961;SHT31;51487;52.266;10.542;2024-02-26T04:33:44;2.64;91.90
64961;SHT31;51487;52.266;10.542;2024-02-26T04:36:16;2.67;91.96
64961;SHT31;51487;52.266;10.542;2024-02-26T04:38:43;2.82;91.54
64961;SHT31;51487;52.266;10.542;2024-02-26T04:41:09;2.79;91.52
64961;SHT31;51487;52.266;10.542;2024-02-26T04:43:35;2.77;91.60
64961;SHT31;51487;52.266;10.542;2024-02-26T04:46:07;2.79;91.59
64961;SHT31;51487;52.266;10.542;2024-02-26T04:48:34;2.80;91.57
64961;SHT31;51487;52.266;10.542;2024-02-26T04:51:00;2.82;91.61
64961;SHT31;51487;52.266;10.542;2024-02-26T04:53:26;2.83;91.50
64961;SHT31;51487;52.266;10.542;2024-02-26T04:55:52;2.87;91.56
64961;SHT31;51487;52.266;10.542;2024-02-26T04:58:17;2.86;91.49
64961;SHT31;51487;52.266;10.542;2024-02-26T05:00:43;2.84;91.58
64961;SHT31;51487;52.266;10.542;2024-02-26T05:03:09;2.80;92.07
64961;SHT31;51487;52.266;10.542;2024-02-26T05:05:39;2.86;91.84
64961;SHT31;51487;52.266;10.542;2024-02-26T05:08:06;2.90;91.83
64961;SHT31;51487;52.266;10.542;2024-02-26T05:10:33;2.92;91.73
64961;SHT31;51487;52.266;10.542;2024-02-26T05:12:58;2.99;91.79
64961;SHT31;51487;52.266;10.542;2024-02-26T05:15:24;3.08;91.93
64961;SHT31;51487;52.266;10.542;2024-02-26T05:17:49;2.99;91.46
64961;SHT31;51487;52.266;10.542;2024-02-26T05:20:15;3.07;91.25
64961;SHT31;51487;52.266;10.542;2024-02-26T05:22:42;3.07;91.42
64961;SHT31;51487;52.266;10.542;2024-02-26T05:25:08;3.21;91.39
64961;SHT31;51487;52.266;10.542;2024-02-26T05:27:33;3.32;90.76
64961;SHT31;51487;52.266;10.542;2024-02-26T05:29:59;3.30;90.33
64961;SHT31;51487;52.266;10.542;2024-02-26T05:32:24;3.32;90.14
64961;SHT31;51487;52.266;10.542;2024-02-26T05:34:50;3.24;90.27
64961;SHT31;51487;52.266;10.542;2024-02-26T05:37:16;3.10;90.65
64961;SHT31;51487;52.266;10.542;2024-02-26T05:39:42;3.17;90.48
64961;SHT31;51487;52.266;10.542;2024-02-26T05:42:07;3.18;90.45
64961;SHT31;51487;52.266;10.542;2024-02-26T05:44:34;3.25;90.46
64961;SHT31;51487;52.266;10.542;2024-02-26T05:46:59;3.41;89.88
64961;SHT31;51487;52.266;10.542;2024-02-26T05:49:25;3.48;89.59
64961;SHT31;51487;52.266;10.542;2024-02-26T05:51:50;3.45;89.78
64961;SHT31;51487;52.266;10.542;2024-02-26T05:54:16;3.54;89.52
64961;SHT31;51487;52.266;10.542;2024-02-26T05:56:42;3.61;89.29
64961;SHT31;51487;52.266;10.542;2024-02-26T05:59:08;3.66;89.06
64961;SHT31;51487;52.266;10.542;2024-02-26T06:01:33;3.66;89.08
64961;SHT31;51487;52.266;10.542;2024-02-26T06:03:59;3.71;88.99
64961;SHT31;51487;52.266;10.542;2024-02-26T06:06:24;3.66;89.06
64961;SHT31;51487;52.266;10.542;2024-02-26T06:08:50;3.69;89.17
64961;SHT31;51487;52.266;10.542;2024-02-26T06:11:15;3.61;89.10
64961;SHT31;51487;52.266;10.542;2024-02-26T06:13:41;3.71;89.19
64961;SHT31;51487;52.266;10.542;2024-02-26T06:16:08;3.72;88.96
64961;SHT31;51487;52.266;10.542;2024-02-26T06:18:33;3.72;88.92
64961;SHT31;51487;52.266;10.542;2024-02-26T06:20:59;3.71;89.11
64961;SHT31;51487;52.266;10.542;2024-02-26T06:23:25;3.66;89.22
64961;SHT31;51487;52.266;10.542;2024-02-26T06:25:51;3.68;89.43
64961;SHT31;51487;52.266;10.542;2024-02-26T06:28:18;3.66;89.27
64961;SHT31;51487;52.266;10.542;2024-02-26T06:30:43;3.73;89.13
64961;SHT31;51487;52.266;10.542;2024-02-26T06:33:09;3.73;89.25
64961;SHT31;51487;52.266;10.542;2024-02-26T06:35:36;3.82;89.00
64961;SHT31;51487;52.266;10.542;2024-02-26T06:38:01;3.85;88.84
64961;SHT31;51487;52.266;10.542;2024-02-26T06:40:27;3.87;88.82
64961;SHT31;51487;52.266;10.542;2024-02-26T06:42:52;3.90;88.67
64961;SHT31;51487;52.266;10.542;2024-02-26T06:45:18;3.94;88.69
64961;SHT31;51487;52.266;10.542;2024-02-26T06:47:45;3.93;88.69
64961;SHT31;51487;52.266;10.542;2024-02-26T06:50:13;4.04;88.89
64961;SHT31;51487;52.266;10.542;2024-02-26T06:52:39;4.07;88.62
64961;SHT31;51487;52.266;10.542;2024-02-26T06:55:05;4.04;88.46
64961;SHT31;51487;52.266;10.542;2024-02-26T06:57:33;4.09;88.52
64961;SHT31;51487;52.266;10.542;2024-02-26T06:59:59;4.13;88.34
64961;SHT31;51487;52.266;10.542;2024-02-26T07:02:24;4.17;88.39
64961;SHT31;51487;52.266;10.542;2024-02-26T07:04:50;4.07;88.78
64961;SHT31;51487;52.266;10.542;2024-02-26T07:07:15;4.09;88.96
64961;SHT31;51487;52.266;10.542;2024-02-26T07:09:43;4.31;88.64
64961;SHT31;51487;52.266;10.542;2024-02-26T07:12:09;4.36;88.51
64961;SHT31;51487;52.266;10.542;2024-02-26T07:14:34;4.40;88.25
64961;SHT31;51487;52.266;10.542;2024-02-26T07:17:00;4.64;87.61
64961;SHT31;51487;52.266;10.542;2024-02-26T07:19:26;4.75;87.28
64961;SHT31;51487;52.266;10.542;2024-02-26T07:21:51;4.65;87.57
64961;SHT31;51487;52.266;10.542;2024-02-26T07:24:17;4.72;87.35
64961;SHT31;51487;52.266;10.542;2024-02-26T07:26:42;4.83;87.41
64961;SHT31;51487;52.266;10.542;2024-02-26T07:29:08;5.03;86.75
64961;SHT31;51487;52.266;10.542;2024-02-26T07:31:33;5.00;86.38
64961;SHT31;51487;52.266;10.542;2024-02-26T07:33:59;5.20;86.10
64961;SHT31;51487;52.266;10.542;2024-02-26T07:36:24;5.26;85.34
64961;SHT31;51487;52.266;10.542;2024-02-26T07:38:50;5.34;85.14
64961;SHT31;51487;52.266;10.542;2024-02-26T07:41:17;5.54;84.33
64961;SHT31;51487;52.266;10.542;2024-02-26T07:43:43;5.65;83.69
64961;SHT31;51487;52.266;10.542;2024-02-26T07:46:12;5.55;83.91
64961;SHT31;51487;52.266;10.542;2024-02-26T07:48:38;5.47;84.26
64961;SHT31;51487;52.266;10.542;2024-02-26T07:51:04;5.58;83.69
64961;SHT31;51487;52.266;10.542;2024-02-26T07:53:30;5.61;83.46
64961;SHT31;51487;52.266;10.542;2024-02-26T07:55:56;5.61;83.85
64961;SHT31;51487;52.266;10.542;2024-02-26T07:58:23;5.74;83.54
64961;SHT31;51487;52.266;10.542;2024-02-26T08:00:49;5.84;83.41
64961;SHT31;51487;52.266;10.542;2024-02-26T08:03:15;5.88;83.62
64961;SHT31;51487;52.266;10.542;2024-02-26T08:05:42;5.88;83.97
64961;SHT31;51487;52.266;10.542;2024-02-26T08:08:09;6.12;82.96
64961;SHT31;51487;52.266;10.542;2024-02-26T08:10:34;5.94;82.60
64961;SHT31;51487;52.266;10.542;2024-02-26T08:13:00;5.99;82.63
64961;SHT31;51487;52.266;10.542;2024-02-26T08:15:35;6.02;82.69
64961;SHT31;51487;52.266;10.542;2024-02-26T08:18:01;5.98;82.57
64961;SHT31;51487;52.266;10.542;2024-02-26T08:20:30;6.15;81.92
64961;SHT31;51487;52.266;10.542;2024-02-26T08:22:57;6.19;82.78
64961;SHT31;51487;52.266;10.542;2024-02-26T08:25:24;6.13;81.12
64961;SHT31;51487;52.266;10.542;2024-02-26T08:27:49;6.26;81.90
64961;SHT31;51487;52.266;10.542;2024-02-26T08:30:15;6.18;81.73
64961;SHT31;51487;52.266;10.542;2024-02-26T08:32:47;6.33;81.44
64961;SHT31;51487;52.266;10.542;2024-02-26T08:35:13;6.44;81.00
64961;SHT31;51487;52.266;10.542;2024-02-26T08:37:38;6.39;80.54
64961;SHT31;51487;52.266;10.542;2024-02-26T08:40:06;6.32;81.30
64961;SHT31;51487;52.266;10.542;2024-02-26T08:42:32;6.44;80.57
64961;SHT31;51487;52.266;10.542;2024-02-26T08:44:57;6.46;80.48
64961;SHT31;51487;52.266;10.542;2024-02-26T08:47:26;6.63;80.28
64961;SHT31;51487;52.266;10.542;2024-02-26T08:49:51;6.60;80.67
64961;SHT31;51487;52.266;10.542;2024-02-26T08:52:17;6.73;80.43
64961;SHT31;51487;52.266;10.542;2024-02-26T08:54:42;6.76;80.02
64961;SHT31;51487;52.266;10.542;2024-02-26T08:57:08;6.84;79.49
64961;SHT31;51487;52.266;10.542;2024-02-26T08:59:33;6.76;79.64
64961;SHT31;51487;52.266;10.542;2024-02-26T09:01:59;6.83;79.77
64961;SHT31;51487;52.266;10.542;2024-02-26T09:04:25;6.80;80.22
64961;SHT31;51487;52.266;10.542;2024-02-26T09:06:52;6.78;80.35
64961;SHT31;51487;52.266;10.542;2024-02-26T09:09:17;6.74;79.95
64961;SHT31;51487;52.266;10.542;2024-02-26T09:11:43;6.76;80.44
64961;SHT31;51487;52.266;10.542;2024-02-26T09:14:08;6.91;80.12
64961;SHT31;51487;52.266;10.542;2024-02-26T09:16:34;7.05;79.33
64961;SHT31;51487;52.266;10.542;2024-02-26T09:18:59;7.09;79.56
64961;SHT31;51487;52.266;10.542;2024-02-26T09:21:25;7.12;78.55
64961;SHT31;51487;52.266;10.542;2024-02-26T09:23:52;7.28;78.15
64961;SHT31;51487;52.266;10.542;2024-02-26T09:26:18;7.33;77.79
64961;SHT31;51487;52.266;10.542;2024-02-26T09:28:44;7.14;78.60
64961;SHT31;51487;52.266;10.542;2024-02-26T09:31:10;7.19;78.63
64961;SHT31;51487;52.266;10.542;2024-02-26T09:33:35;7.09;78.39
64961;SHT31;51487;52.266;10.542;2024-02-26T09:36:01;7.05;78.80
64961;SHT31;51487;52.266;10.542;2024-02-26T09:38:28;7.04;79.17
64961;SHT31;51487;52.266;10.542;2024-02-26T09:40:58;7.07;79.10
64961;SHT31;51487;52.266;10.542;2024-02-26T09:43:28;7.16;79.15
64961;SHT31;51487;52.266;10.542;2024-02-26T09:45:59;7.07;79.63
64961;SHT31;51487;52.266;10.542;2024-02-26T09:48:25;6.99;80.09
64961;SHT31;51487;52.266;10.542;2024-02-26T09:50:51;7.04;79.89
64961;SHT31;51487;52.266;10.542;2024-02-26T09:53:18;7.15;80.07
64961;SHT31;51487;52.266;10.542;2024-02-26T09:55:45;7.23;79.46
64961;SHT31;51487;52.266;10.542;2024-02-26T09:58:11;7.25;79.56
64961;SHT31;51487;52.266;10.542;2024-02-26T10:00:47;7.26;79.63
64961;SHT31;51487;52.266;10.542;2024-02-26T10:03:18;7.33;79.36
64961;SHT31;51487;52.266;10.542;2024-02-26T10:05:46;7.43;79.68
64961;SHT31;51487;52.266;10.542;2024-02-26T10:08:14;7.32;80.10
64961;SHT31;51487;52.266;10.542;2024-02-26T10:10:41;7.33;79.91
64961;SHT31;51487;52.266;10.542;2024-02-26T10:13:08;7.36;80.05
64961;SHT31;51487;52.266;10.542;2024-02-26T10:15:36;7.38;80.22
64961;SHT31;51487;52.266;10.542;2024-02-26T10:18:06;7.43;80.17
64961;SHT31;51487;52.266;10.542;2024-02-26T10:20:32;7.47;80.09
64961;SHT31;51487;52.266;10.542;2024-02-26T10:23:02;7.62;79.71
64961;SHT31;51487;52.266;10.542;2024-02-26T10:25:27;7.67;79.77
64961;SHT31;51487;52.266;10.542;2024-02-26T10:27:53;7.65;79.52
64961;SHT31;51487;52.266;10.542;2024-02-26T10:30:21;7.57;79.67
64961;SHT31;51487;52.266;10.542;2024-02-26T10:32:49;7.33;80.63
64961;SHT31;51487;52.266;10.542;2024-02-26T10:35:16;7.53;80.37
64961;SHT31;51487;52.266;10.542;2024-02-26T10:37:43;7.55;80.35
64961;SHT31;51487;52.266;10.542;2024-02-26T10:40:16;7.67;80.59
64961;SHT31;51487;52.266;10.542;2024-02-26T10:42:43;7.57;80.95
64961;SHT31;51487;52.266;10.542;2024-02-26T10:45:09;7.76;81.08
64961;SHT31;51487;52.266;10.542;2024-02-26T10:47:37;7.88;80.52
64961;SHT31;51487;52.266;10.542;2024-02-26T10:50:05;7.67;80.69
64961;SHT31;51487;52.266;10.542;2024-02-26T10:52:33;7.65;80.87
64961;SHT31;51487;52.266;10.542;2024-02-26T10:55:02;7.71;80.88
64961;SHT31;51487;52.266;10.542;2024-02-26T10:57:34;7.86;80.87
64961;SHT31;51487;52.266;10.542;2024-02-26T11:00:02;7.66;81.37
64961;SHT31;51487;52.266;10.542;2024-02-26T11:02:33;7.70;81.36
64961;SHT31;51487;52.266;10.542;2024-02-26T11:05:02;7.87;80.54
64961;SHT31;51487;52.266;10.542;2024-02-26T11:07:30;7.74;81.08
64961;SHT31;51487;52.266;10.542;2024-02-26T11:10:00;7.69;81.20
64961;SHT31;51487;52.266;10.542;2024-02-26T11:12:28;7.70;81.19
64961;SHT31;51487;52.266;10.542;2024-02-26T11:14:55;7.71;80.90
64961;SHT31;51487;52.266;10.542;2024-02-26T11:17:27;7.77;81.25
64961;SHT31;51487;52.266;10.542;2024-02-26T11:19:56;7.76;81.22
64961;SHT31;51487;52.266;10.542;2024-02-26T11:22:24;7.66;81.63
64961;SHT31;51487;52.266;10.542;2024-02-26T11:24:53;7.76;81.30
64961;SHT31;51487;52.266;10.542;2024-02-26T11:27:28;7.78;81.04
64961;SHT31;51487;52.266;10.542;2024-02-26T11:29:57;7.95;81.07
64961;SHT31;51487;52.266;10.542;2024-02-26T11:32:27;8.11;80.32
64961;SHT31;51487;52.266;10.542;2024-02-26T11:34:55;8.14;80.49
64961;SHT31;51487;52.266;10.542;2024-02-26T11:37:22;7.98;80.64
64961;SHT31;51487;52.266;10.542;2024-02-26T11:39:51;8.08;81.29
64961;SHT31;51487;52.266;10.542;2024-02-26T11:42:17;8.28;81.28
64961;SHT31;51487;52.266;10.542;2024-02-26T11:44:43;8.38;80.30
64961;SHT31;51487;52.266;10.542;2024-02-26T11:47:20;8.48;79.88
64961;SHT31;51487;52.266;10.542;2024-02-26T11:49:46;8.65;79.34
64961;SHT31;51487;52.266;10.542;2024-02-26T11:52:14;8.70;79.34
64961;SHT31;51487;52.266;10.542;2024-02-26T11:57:39;8.67;79.28
64961;SHT31;51487;52.266;10.542;2024-02-26T12:00:15;8.62;79.43
64961;SHT31;51487;52.266;10.542;2024-02-26T12:05:21;8.45;80.14
64961;SHT31;51487;52.266;10.542;2024-02-26T12:08:01;8.49;80.58
64961;SHT31;51487;52.266;10.542;2024-02-26T12:10:30;8.48;80.43
64961;SHT31;51487;52.266;10.542;2024-02-26T12:13:08;8.67;80.01
64961;SHT31;51487;52.266;10.542;2024-02-26T12:15:45;8.70;79.78
64961;SHT31;51487;52.266;10.542;2024-02-26T12:18:17;8.69;79.89
64961;SHT31;51487;52.266;10.542;2024-02-26T12:20:43;8.67;80.15
64961;SHT31;51487;52.266;10.542;2024-02-26T12:23:15;8.66;80.20
64961;SHT31;51487;52.266;10.542;2024-02-26T12:25:43;8.55;80.82
64961;SHT31;51487;52.266;10.542;2024-02-26T12:28:10;8.62;80.69
64961;SHT31;51487;52.266;10.542;2024-02-26T12:30:35;8.49;81.09
64961;SHT31;51487;52.266;10.542;2024-02-26T12:33:01;8.53;81.15
64961;SHT31;51487;52.266;10.542;2024-02-26T12:35:28;8.55;81.27
64961;SHT31;51487;52.266;10.542;2024-02-26T12:37:57;8.35;81.61
64961;SHT31;51487;52.266;10.542;2024-02-26T12:40:23;8.49;81.32
64961;SHT31;51487;52.266;10.542;2024-02-26T12:42:49;8.49;81.21
64961;SHT31;51487;52.266;10.542;2024-02-26T12:45:15;8.52;81.42
64961;SHT31;51487;52.266;10.542;2024-02-26T12:47:45;8.67;81.18
64961;SHT31;51487;52.266;10.542;2024-02-26T12:50:12;8.76;81.08
64961;SHT31;51487;52.266;10.542;2024-02-26T12:52:43;8.81;81.11
64961;SHT31;51487;52.266;10.542;2024-02-26T12:55:14;8.83;80.38
64961;SHT31;51487;52.266;10.542;2024-02-26T12:57:42;8.75;81.02
64961;SHT31;51487;52.266;10.542;2024-02-26T13:00:16;8.77;80.71
64961;SHT31;51487;52.266;10.542;2024-02-26T13:02:42;8.76;80.57
64961;SHT31;51487;52.266;10.542;2024-02-26T13:05:12;8.60;80.62
64961;SHT31;51487;52.266;10.542;2024-02-26T13:07:43;8.65;81.04
64961;SHT31;51487;52.266;10.542;2024-02-26T13:10:09;8.70;81.14
64961;SHT31;51487;52.266;10.542;2024-02-26T13:12:42;8.65;81.12
64961;SHT31;51487;52.266;10.542;2024-02-26T13:15:14;8.69;81.09
64961;SHT31;51487;52.266;10.542;2024-02-26T13:17:40;8.79;81.12
64961;SHT31;51487;52.266;10.542;2024-02-26T13:20:08;8.84;80.64
64961;SHT31;51487;52.266;10.542;2024-02-26T13:22:38;8.77;80.96
64961;SHT31;51487;52.266;10.542;2024-02-26T13:25:04;8.91;80.79
64961;SHT31;51487;52.266;10.542;2024-02-26T13:27:33;9.01;80.74
64961;SHT31;51487;52.266;10.542;2024-02-26T13:30:09;9.23;80.17
64961;SHT31;51487;52.266;10.542;2024-02-26T13:32:37;9.24;80.30
64961;SHT31;51487;52.266;10.542;2024-02-26T13:35:12;9.28;79.83
64961;SHT31;51487;52.266;10.542;2024-02-26T13:37:40;9.10;80.16
64961;SHT31;51487;52.266;10.542;2024-02-26T13:40:11;9.15;80.39
64961;SHT31;51487;52.266;10.542;2024-02-26T13:42:38;9.13;80.28
64961;SHT31;51487;52.266;10.542;2024-02-26T13:45:05;9.21;80.62
64961;SHT31;51487;52.266;10.542;2024-02-26T13:47:34;9.31;79.80
64961;SHT31;51487;52.266;10.542;2024-02-26T13:50:01;9.35;79.81
64961;SHT31;51487;52.266;10.542;2024-02-26T13:52:27;9.35;79.53
64961;SHT31;51487;52.266;10.542;2024-02-26T13:54:52;9.24;79.87
64961;SHT31;51487;52.266;10.542;2024-02-26T13:57:19;9.18;80.11
64961;SHT31;51487;52.266;10.542;2024-02-26T13:59:46;9.28;80.08
64961;SHT31;51487;52.266;10.542;2024-02-26T14:02:11;9.24;80.09
64961;SHT31;51487;52.266;10.542;2024-02-26T14:04:37;9.24;80.20
64961;SHT31;51487;52.266;10.542;2024-02-26T14:07:04;9.42;80.09
64961;SHT31;51487;52.266;10.542;2024-02-26T14:09:30;9.27;80.43
64961;SHT31;51487;52.266;10.542;2024-02-26T14:11:58;9.24;80.45
64961;SHT31;51487;52.266;10.542;2024-02-26T14:14:24;9.17;80.73
64961;SHT31;51487;52.266;10.542;2024-02-26T14:16:51;8.87;81.51
64961;SHT31;51487;52.266;10.542;2024-02-26T14:19:16;9.01;81.29
64961;SHT31;51487;52.266;10.542;2024-02-26T14:21:42;8.90;81.65
64961;SHT31;51487;52.266;10.542;2024-02-26T14:24:07;8.91;81.53
64961;SHT31;51487;52.266;10.542;2024-02-26T14:26:33;8.87;81.75
64961;SHT31;51487;52.266;10.542;2024-02-26T14:28:59;8.79;81.86
64961;SHT31;51487;52.266;10.542;2024-02-26T14:31:24;8.79;82.11
64961;SHT31;51487;52.266;10.542;2024-02-26T14:33:51;8.79;81.98
64961;SHT31;51487;52.266;10.542;2024-02-26T14:36:20;8.72;82.39
64961;SHT31;51487;52.266;10.542;2024-02-26T14:38:47;8.73;82.40
64961;SHT31;51487;52.266;10.542;2024-02-26T14:41:13;8.72;82.50
64961;SHT31;51487;52.266;10.542;2024-02-26T14:43:39;8.72;82.55
64961;SHT31;51487;52.266;10.542;2024-02-26T14:46:04;8.77;82.64
64961;SHT31;51487;52.266;10.542;2024-02-26T14:48:30;8.69;82.75
64961;SHT31;51487;52.266;10.542;2024-02-26T14:50:57;8.62;83.02
64961;SHT31;51487;52.266;10.542;2024-02-26T14:53:23;8.69;82.93
64961;SHT31;51487;52.266;10.542;2024-02-26T14:55:48;8.53;83.30
64961;SHT31;51487;52.266;10.542;2024-02-26T14:58:14;8.59;83.51
64961;SHT31;51487;52.266;10.542;2024-02-26T15:00:39;8.69;83.35
64961;SHT31;51487;52.266;10.542;2024-02-26T15:03:05;8.62;83.34
64961;SHT31;51487;52.266;10.542;2024-02-26T15:05:32;8.53;83.64
64961;SHT31;51487;52.266;10.542;2024-02-26T15:07:58;8.48;83.81
64961;SHT31;51487;52.266;10.542;2024-02-26T15:10:28;8.52;83.95
64961;SHT31;51487;52.266;10.542;2024-02-26T15:12:54;8.45;84.05
64961;SHT31;51487;52.266;10.542;2024-02-26T15:15:24;8.52;84.14
64961;SHT31;51487;52.266;10.542;2024-02-26T15:17:50;8.55;84.06
64961;SHT31;51487;52.266;10.542;2024-02-26T15:20:17;8.46;84.18
64961;SHT31;51487;52.266;10.542;2024-02-26T15:22:43;8.53;84.19
64961;SHT31;51487;52.266;10.542;2024-02-26T15:25:09;8.55;84.05
64961;SHT31;51487;52.266;10.542;2024-02-26T15:27:35;8.63;84.04
64961;SHT31;51487;52.266;10.542;2024-02-26T15:30:01;8.63;83.78
64961;SHT31;51487;52.266;10.542;2024-02-26T15:32:27;8.63;84.00